createdAt,value
2018-02-18T00:00:01.602Z,102699.75
2018-02-18T00:01:06.308Z,102699.33
2018-02-18T00:02:10.557Z,102702.54
2018-02-18T00:03:14.860Z,102699.33
2018-02-18T00:04:19.408Z,102704.05
2018-02-18T00:05:23.644Z,102702.23
2018-02-18T00:06:27.847Z,102697.33
2018-02-18T00:07:32.027Z,102701.95
2018-02-18T00:08:37.464Z,102700.20
2018-02-18T00:09:41.701Z,102701.57
2018-02-18T00:10:46.234Z,102706.06
2018-02-18T00:11:50.456Z,102707.11
2018-02-18T00:12:54.767Z,102703.02
2018-02-18T00:13:59.954Z,102703.40
2018-02-18T00:15:06.552Z,102707.47
2018-02-18T00:16:10.828Z,102710.38
2018-02-18T00:17:15.738Z,102707.52
2018-02-18T00:18:19.904Z,102700.42
2018-02-18T00:19:24.043Z,102706.45
2018-02-18T00:20:28.205Z,102712.40
2018-02-18T00:21:32.482Z,102711.20
2018-02-18T00:22:36.636Z,102715.67
2018-02-18T00:23:41.071Z,102705.05
2018-02-18T00:24:45.236Z,102710.21
2018-02-18T00:25:49.490Z,102706.56
2018-02-18T00:26:53.663Z,102707.06
2018-02-18T00:27:58.293Z,102708.41
2018-02-18T00:29:03.434Z,102710.70
2018-02-18T00:30:07.964Z,102703.20
2018-02-18T00:31:13.139Z,102714.94
2018-02-18T00:32:17.312Z,102707.81
2018-02-18T00:33:21.493Z,102712.60
2018-02-18T00:34:25.633Z,102704.91
2018-02-18T00:35:30.819Z,102709.38
2018-02-18T00:36:35.307Z,102713.12
2018-02-18T00:37:39.798Z,102709.36
2018-02-18T00:38:43.942Z,102711.73
2018-02-18T00:39:48.099Z,102709.55
2018-02-18T00:40:52.354Z,102708.12
2018-02-18T00:41:56.970Z,102712.16
2018-02-18T00:43:01.868Z,102712.78
2018-02-18T00:44:06.025Z,102710.55
2018-02-18T00:45:13.132Z,102714.70
2018-02-18T00:46:17.271Z,102711.84
2018-02-18T00:47:21.575Z,102712.81
2018-02-18T00:48:26.201Z,102709.08
2018-02-18T00:49:30.342Z,102712.91
2018-02-18T00:50:34.592Z,102706.53
2018-02-18T00:51:38.829Z,102712.54
2018-02-18T00:52:43.025Z,102715.51
2018-02-18T00:53:47.158Z,102723.80
2018-02-18T00:54:51.606Z,102720.31
2018-02-18T00:55:55.962Z,102717.80
2018-02-18T00:57:00.979Z,102718.47
2018-02-18T00:58:05.232Z,102719.11
2018-02-18T00:59:09.370Z,102717.91
2018-02-18T01:00:16.127Z,102719.03
2018-02-18T01:01:20.683Z,102724.38
2018-02-18T01:02:24.817Z,102724.33
2018-02-18T01:03:29.036Z,102723.80
2018-02-18T01:04:33.170Z,102723.34
2018-02-18T01:05:38.294Z,102719.30
2018-02-18T01:06:42.451Z,102724.77
2018-02-18T01:07:46.773Z,102724.05
2018-02-18T01:08:51.319Z,102725.44
2018-02-18T01:09:55.714Z,102728.68
2018-02-18T01:11:00.514Z,102722.47
2018-02-18T01:12:04.814Z,102722.38
2018-02-18T01:13:08.959Z,102724.67
2018-02-18T01:14:14.201Z,102721.86
2018-02-18T01:15:18.805Z,102716.61
2018-02-18T01:16:23.041Z,102719.72
2018-02-18T01:17:27.238Z,102718.23
2018-02-18T01:18:31.400Z,102721.27
2018-02-18T01:19:35.513Z,102714.54
2018-02-18T01:20:40.856Z,102728.64
2018-02-18T01:21:45.023Z,102724.05
2018-02-18T01:22:49.283Z,102728.03
2018-02-18T01:23:53.422Z,102730.38
2018-02-18T01:24:57.975Z,102727.59
2018-02-18T01:26:03.347Z,102734.56
2018-02-18T01:27:07.787Z,102734.34
2018-02-18T01:28:11.919Z,102732.08
2018-02-18T01:29:16.138Z,102739.30
2018-02-18T01:30:20.553Z,102737.99
2018-02-18T01:31:25.587Z,102740.05
2018-02-18T01:32:29.706Z,102734.93
2018-02-18T01:33:33.867Z,102742.06
2018-02-18T01:34:38.024Z,102739.83
2018-02-18T01:35:42.237Z,102743.84
2018-02-18T01:36:46.379Z,102733.10
2018-02-18T01:37:50.516Z,102745.75
2018-02-18T01:38:54.983Z,102734.09
2018-02-18T01:39:59.495Z,102734.34
2018-02-18T01:41:03.749Z,102737.86
2018-02-18T01:42:08.731Z,102737.11
2018-02-18T01:43:12.864Z,102741.27
2018-02-18T01:44:17.042Z,102741.09
2018-02-18T01:45:21.866Z,102740.31
2018-02-18T01:46:26.038Z,102739.30
2018-02-18T01:47:30.155Z,102731.51
2018-02-18T01:48:34.295Z,102734.00
2018-02-18T01:49:38.407Z,102729.92
2018-02-18T01:50:42.558Z,102723.10
2018-02-18T01:51:47.079Z,102719.92
2018-02-18T01:52:51.231Z,102715.91
2018-02-18T01:53:55.482Z,102723.98
2018-02-18T01:55:00.497Z,102723.47
2018-02-18T01:56:04.801Z,102724.97
2018-02-18T01:57:09.703Z,102717.14
2018-02-18T01:58:13.821Z,102713.31
2018-02-18T01:59:18.012Z,102723.42
2018-02-18T02:00:22.363Z,102722.50
2018-02-18T02:01:26.553Z,102722.52
2018-02-18T02:02:30.659Z,102714.78
2018-02-18T02:03:34.776Z,102719.80
2018-02-18T02:04:39.286Z,102714.27
2018-02-18T02:05:43.412Z,102722.86
2018-02-18T02:06:47.511Z,102718.61
2018-02-18T02:07:51.615Z,102718.59
2018-02-18T02:08:55.849Z,102711.88
2018-02-18T02:10:00.499Z,102716.06
2018-02-18T02:11:05.057Z,102718.67
2018-02-18T02:12:09.249Z,102713.01
2018-02-18T02:13:13.384Z,102710.48
2018-02-18T02:14:17.563Z,102717.86
2018-02-18T02:15:22.059Z,102720.28
2018-02-18T02:16:26.179Z,102715.64
2018-02-18T02:17:30.608Z,102720.34
2018-02-18T02:18:34.777Z,102719.70
2018-02-18T02:19:38.951Z,102726.31
2018-02-18T02:20:43.717Z,102725.98
2018-02-18T02:21:48.298Z,102730.80
2018-02-18T02:22:52.804Z,102733.69
2018-02-18T02:23:58.410Z,102732.96
2018-02-18T02:25:02.986Z,102728.86
2018-02-18T02:26:07.219Z,102732.85
2018-02-18T02:27:12.099Z,102727.21
2018-02-18T02:28:16.206Z,102730.99
2018-02-18T02:29:20.627Z,102723.50
2018-02-18T02:30:25.129Z,102728.97
2018-02-18T02:31:29.321Z,102728.16
2018-02-18T02:32:33.453Z,102729.31
2018-02-18T02:33:37.545Z,102729.75
2018-02-18T02:34:41.735Z,102728.52
2018-02-18T02:35:46.123Z,102723.72
2018-02-18T02:36:50.288Z,102723.39
2018-02-18T02:37:54.413Z,102726.70
2018-02-18T02:38:59.320Z,102720.73
2018-02-18T02:40:04.578Z,102720.45
2018-02-18T02:41:08.717Z,102718.44
2018-02-18T02:42:14.216Z,102722.69
2018-02-18T02:43:18.371Z,102723.38
2018-02-18T02:44:23.668Z,102716.09
2018-02-18T02:45:28.015Z,102720.41
2018-02-18T02:46:32.124Z,102718.24
2018-02-18T02:47:36.254Z,102723.34
2018-02-18T02:48:40.376Z,102718.84
2018-02-18T02:49:44.475Z,102714.77
2018-02-18T02:50:48.619Z,102716.20
2018-02-18T02:51:52.747Z,102721.92
2018-02-18T02:52:57.033Z,102707.55
2018-02-18T02:54:02.275Z,102709.51
2018-02-18T02:55:06.696Z,102711.22
2018-02-18T02:56:10.800Z,102706.53
2018-02-18T02:57:15.740Z,102709.27
2018-02-18T02:58:20.586Z,102717.31
2018-02-18T02:59:24.727Z,102712.09
2018-02-18T03:00:29.087Z,102716.16
2018-02-18T03:01:33.602Z,102713.70
2018-02-18T03:02:37.715Z,102717.72
2018-02-18T03:03:42.745Z,102712.94
2018-02-18T03:04:46.901Z,102708.45
2018-02-18T03:05:51.058Z,102714.36
2018-02-18T03:06:55.182Z,102710.40
2018-02-18T03:08:00.512Z,102709.94
2018-02-18T03:09:04.947Z,102708.97
2018-02-18T03:10:09.062Z,102699.10
2018-02-18T03:11:14.355Z,102703.88
2018-02-18T03:12:18.444Z,102702.45
2018-02-18T03:13:23.139Z,102704.70
2018-02-18T03:14:28.707Z,102707.67
2018-02-18T03:15:33.216Z,102703.30
2018-02-18T03:16:37.598Z,102703.00
2018-02-18T03:17:41.763Z,102705.27
2018-02-18T03:18:45.843Z,102697.49
2018-02-18T03:19:50.443Z,102701.81
2018-02-18T03:20:54.561Z,102701.00
2018-02-18T03:21:58.848Z,102698.10
2018-02-18T03:23:03.339Z,102699.69
2018-02-18T03:24:07.523Z,102700.71
2018-02-18T03:25:11.621Z,102702.70
2018-02-18T03:26:16.900Z,102697.90
2018-02-18T03:27:22.031Z,102697.73
2018-02-18T03:28:26.225Z,102700.87
2018-02-18T03:29:30.334Z,102704.33
2018-02-18T03:30:34.843Z,102701.45
2018-02-18T03:31:38.939Z,102701.63
2018-02-18T03:32:43.371Z,102697.92
2018-02-18T03:33:47.484Z,102692.27
2018-02-18T03:34:51.724Z,102701.48
2018-02-18T03:35:55.820Z,102695.23
2018-02-18T03:36:59.915Z,102696.69
2018-02-18T03:38:04.808Z,102704.93
2018-02-18T03:39:09.176Z,102698.63
2018-02-18T03:40:13.380Z,102701.77
2018-02-18T03:41:18.065Z,102700.58
2018-02-18T03:42:22.167Z,102708.37
2018-02-18T03:43:26.367Z,102709.42
2018-02-18T03:44:30.502Z,102710.98
2018-02-18T03:45:36.219Z,102703.02
2018-02-18T03:46:40.651Z,102707.34
2018-02-18T03:47:45.628Z,102706.48
2018-02-18T03:48:49.743Z,102705.72
2018-02-18T03:49:53.878Z,102707.76
2018-02-18T03:50:58.498Z,102708.20
2018-02-18T03:52:03.216Z,102698.63
2018-02-18T03:53:07.524Z,102698.99
2018-02-18T03:54:11.666Z,102697.31
2018-02-18T03:55:16.517Z,102701.97
2018-02-18T03:56:21.782Z,102702.50
2018-02-18T03:57:26.758Z,102696.98
2018-02-18T03:58:31.742Z,102700.13
2018-02-18T03:59:36.315Z,102700.48
2018-02-18T04:00:40.886Z,102698.01
2018-02-18T04:01:45.031Z,102700.53
2018-02-18T04:02:49.673Z,102703.27
2018-02-18T04:03:53.942Z,102700.50
2018-02-18T04:04:58.683Z,102708.17
2018-02-18T04:06:02.984Z,102710.91
2018-02-18T04:07:07.379Z,102710.82
2018-02-18T04:08:11.500Z,102709.18
2018-02-18T04:09:16.469Z,102719.38
2018-02-18T04:10:20.918Z,102708.15
2018-02-18T04:11:25.030Z,102713.24
2018-02-18T04:12:29.916Z,102714.09
2018-02-18T04:13:34.114Z,102711.89
2018-02-18T04:14:38.240Z,102720.09
2018-02-18T04:15:42.575Z,102716.95
2018-02-18T04:16:47.004Z,102719.47
2018-02-18T04:17:51.119Z,102714.50
2018-02-18T04:18:55.326Z,102724.13
2018-02-18T04:19:59.435Z,102721.42
2018-02-18T04:21:03.613Z,102715.56
2018-02-18T04:22:08.308Z,102719.97
2018-02-18T04:23:12.703Z,102716.02
2018-02-18T04:24:16.801Z,102717.78
2018-02-18T04:25:20.971Z,102718.34
2018-02-18T04:26:25.440Z,102717.33
2018-02-18T04:27:29.903Z,102721.36
2018-02-18T04:28:34.011Z,102716.62
2018-02-18T04:29:38.126Z,102721.67
2018-02-18T04:30:42.698Z,102724.01
2018-02-18T04:31:46.807Z,102722.94
2018-02-18T04:32:51.308Z,102722.37
2018-02-18T04:33:55.722Z,102718.05
2018-02-18T04:35:00.191Z,102728.40
2018-02-18T04:36:04.799Z,102726.39
2018-02-18T04:37:10.128Z,102725.49
2018-02-18T04:38:14.482Z,102727.20
2018-02-18T04:39:18.610Z,102731.52
2018-02-18T04:40:22.893Z,102729.00
2018-02-18T04:41:26.990Z,102725.54
2018-02-18T04:42:31.103Z,102731.20
2018-02-18T04:43:35.202Z,102732.02
2018-02-18T04:44:39.363Z,102732.77
2018-02-18T04:45:43.785Z,102733.70
2018-02-18T04:46:48.042Z,102730.31
2018-02-18T04:47:52.823Z,102736.30
2018-02-18T04:48:57.287Z,102737.73
2018-02-18T04:50:01.695Z,102737.36
2018-02-18T04:51:05.973Z,102733.81
2018-02-18T04:52:10.180Z,102734.45
2018-02-18T04:53:14.306Z,102739.52
2018-02-18T04:54:19.025Z,102732.92
2018-02-18T04:55:23.847Z,102724.25
2018-02-18T04:56:29.168Z,102725.19
2018-02-18T04:57:33.282Z,102724.32
2018-02-18T04:58:37.381Z,102725.99
2018-02-18T04:59:42.352Z,102728.20
2018-02-18T05:00:46.778Z,102725.17
2018-02-18T05:01:50.868Z,102719.75
2018-02-18T05:02:55.075Z,102728.24
2018-02-18T05:03:59.255Z,102724.29
2018-02-18T05:05:04.224Z,102727.39
2018-02-18T05:06:08.874Z,102730.33
2018-02-18T05:07:12.980Z,102732.70
2018-02-18T05:08:17.081Z,102729.27
2018-02-18T05:09:21.255Z,102728.39
2018-02-18T05:10:25.982Z,102730.23
2018-02-18T05:11:31.010Z,102727.95
2018-02-18T05:12:35.542Z,102721.87
2018-02-18T05:13:39.643Z,102720.53
2018-02-18T05:14:43.812Z,102714.70
2018-02-18T05:15:48.099Z,102719.53
2018-02-18T05:16:52.215Z,102709.19
2018-02-18T05:17:56.297Z,102712.71
2018-02-18T05:19:00.783Z,102713.39
2018-02-18T05:20:04.888Z,102716.66
2018-02-18T05:21:09.051Z,102716.86
2018-02-18T05:22:13.163Z,102723.56
2018-02-18T05:23:17.338Z,102717.77
2018-02-18T05:24:21.470Z,102720.67
2018-02-18T05:25:25.727Z,102717.00
2018-02-18T05:26:30.410Z,102715.05
2018-02-18T05:27:34.851Z,102716.30
2018-02-18T05:28:39.155Z,102713.44
2018-02-18T05:29:43.338Z,102711.75
2018-02-18T05:30:47.910Z,102711.36
2018-02-18T05:32:51.312Z,102711.95
2018-02-18T05:33:55.770Z,102712.67
2018-02-18T05:34:59.892Z,102720.25
2018-02-18T05:36:03.990Z,102712.38
2018-02-18T05:37:08.590Z,102711.06
2018-02-18T05:38:12.764Z,102717.45
2018-02-18T05:39:17.059Z,102715.27
2018-02-18T05:40:21.298Z,102719.00
2018-02-18T05:41:25.410Z,102718.52
2018-02-18T05:42:29.590Z,102716.53
2018-02-18T05:43:34.031Z,102715.28
2018-02-18T05:44:38.251Z,102709.90
2018-02-18T05:45:43.374Z,102714.48
2018-02-18T05:46:47.518Z,102711.75
2018-02-18T05:47:51.708Z,102714.85
2018-02-18T05:48:55.830Z,102711.75
2018-02-18T05:50:00.243Z,102716.38
2018-02-18T05:51:04.319Z,102713.85
2018-02-18T05:52:08.485Z,102717.24
2018-02-18T05:53:12.602Z,102724.55
2018-02-18T05:54:16.830Z,102723.70
2018-02-18T05:55:20.950Z,102718.19
2018-02-18T05:56:25.078Z,102719.77
2018-02-18T05:57:30.166Z,102721.70
2018-02-18T05:58:34.846Z,102721.69
2018-02-18T05:59:39.017Z,102715.27
2018-02-18T06:00:43.483Z,102713.38
2018-02-18T06:01:47.579Z,102713.33
2018-02-18T06:02:52.056Z,102714.64
2018-02-18T06:03:56.173Z,102709.38
2018-02-18T06:05:00.263Z,102711.50
2018-02-18T06:06:04.463Z,102704.39
2018-02-18T06:07:08.628Z,102711.97
2018-02-18T06:08:13.132Z,102711.33
2018-02-18T06:09:17.267Z,102712.52
2018-02-18T06:10:21.519Z,102711.66
2018-02-18T06:11:25.634Z,102709.35
2018-02-18T06:12:29.844Z,102706.83
2018-02-18T06:13:33.970Z,102709.88
2018-02-18T06:14:38.991Z,102707.15
2018-02-18T06:15:44.272Z,102713.68
2018-02-18T06:16:48.719Z,102715.23
2018-02-18T06:17:53.206Z,102713.80
2018-02-18T06:18:57.864Z,102706.86
2018-02-18T06:20:02.236Z,102713.10
2018-02-18T06:21:06.434Z,102715.61
2018-02-18T06:22:10.577Z,102714.73
2018-02-18T06:23:14.665Z,102714.52
2018-02-18T06:24:18.776Z,102717.43
2018-02-18T06:25:23.047Z,102722.49
2018-02-18T06:26:27.496Z,102719.11
2018-02-18T06:27:31.682Z,102718.74
2018-02-18T06:28:35.784Z,102712.50
2018-02-18T06:29:39.983Z,102708.33
2018-02-18T06:30:44.314Z,102712.27
2018-02-18T06:31:48.598Z,102718.72
2018-02-18T06:32:52.751Z,102709.48
2018-02-18T06:33:57.197Z,102703.52
2018-02-18T06:35:01.747Z,102706.25
2018-02-18T06:36:05.957Z,102702.34
2018-02-18T06:37:10.546Z,102706.03
2018-02-18T06:38:15.281Z,102705.80
2018-02-18T06:39:19.812Z,102703.88
2018-02-18T06:40:23.968Z,102707.11
2018-02-18T06:41:28.214Z,102716.46
2018-02-18T06:42:33.642Z,102714.92
2018-02-18T06:43:37.768Z,102707.06
2018-02-18T06:44:41.965Z,102713.91
2018-02-18T06:45:46.548Z,102708.78
2018-02-18T06:46:50.734Z,102709.36
2018-02-18T06:47:54.860Z,102715.80
2018-02-18T06:48:59.004Z,102711.75
2018-02-18T06:50:03.111Z,102711.63
2018-02-18T06:51:07.507Z,102706.43
2018-02-18T06:52:11.619Z,102712.98
2018-02-18T06:53:15.803Z,102712.46
2018-02-18T06:54:19.919Z,102705.88
2018-02-18T06:55:24.030Z,102708.41
2018-02-18T06:56:28.108Z,102704.88
2018-02-18T06:57:33.375Z,102709.20
2018-02-18T06:58:37.511Z,102710.63
2018-02-18T06:59:41.710Z,102709.72
2018-02-18T07:00:46.171Z,102714.89
2018-02-18T07:01:50.539Z,102715.52
2018-02-18T07:02:54.751Z,102711.34
2018-02-18T07:03:59.223Z,102711.86
2018-02-18T07:05:03.452Z,102714.70
2018-02-18T07:06:07.974Z,102716.39
2018-02-18T07:07:13.473Z,102715.00
2018-02-18T07:08:17.909Z,102723.07
2018-02-18T07:09:22.681Z,102721.44
2018-02-18T07:10:27.346Z,102725.89
2018-02-18T07:11:31.817Z,102727.50
2018-02-18T07:12:36.239Z,102727.76
2018-02-18T07:13:40.504Z,102727.83
2018-02-18T07:14:45.070Z,102723.13
2018-02-18T07:15:49.749Z,102724.41
2018-02-18T07:16:53.948Z,102722.06
2018-02-18T07:17:58.121Z,102721.21
2018-02-18T07:19:02.465Z,102722.13
2018-02-18T07:20:07.082Z,102721.44
2018-02-18T07:21:11.223Z,102717.81
2018-02-18T07:22:15.643Z,102714.64
2018-02-18T07:23:19.837Z,102721.47
2018-02-18T07:24:24.011Z,102727.75
2018-02-18T07:25:28.187Z,102719.44
2018-02-18T07:26:33.321Z,102725.13
2018-02-18T07:27:37.515Z,102723.61
2018-02-18T07:28:42.617Z,102714.09
2018-02-18T07:29:46.783Z,102718.54
2018-02-18T07:30:51.131Z,102717.09
2018-02-18T07:31:55.335Z,102716.91
2018-02-18T07:32:59.438Z,102720.05
2018-02-18T07:34:03.570Z,102721.27
2018-02-18T07:35:08.124Z,102716.52
2018-02-18T07:36:12.975Z,102716.11
2018-02-18T07:37:19.061Z,102717.97
2018-02-18T07:38:23.276Z,102714.38
2018-02-18T07:39:27.813Z,102721.41
2018-02-18T07:40:32.890Z,102718.14
2018-02-18T07:41:37.084Z,102715.61
2018-02-18T07:42:41.675Z,102720.64
2018-02-18T07:43:45.784Z,102719.66
2018-02-18T07:44:49.982Z,102717.15
2018-02-18T07:45:54.534Z,102709.02
2018-02-18T07:46:58.675Z,102716.72
2018-02-18T07:48:03.188Z,102715.02
2018-02-18T07:49:07.323Z,102716.53
2018-02-18T07:50:11.449Z,102716.84
2018-02-18T07:51:15.607Z,102720.31
2018-02-18T07:52:19.982Z,102720.36
2018-02-18T07:53:24.190Z,102717.76
2018-02-18T07:54:28.487Z,102718.68
2018-02-18T07:55:33.362Z,102714.40
2018-02-18T07:56:37.508Z,102718.94
2018-02-18T07:57:41.627Z,102719.95
2018-02-18T07:58:45.743Z,102720.86
2018-02-18T07:59:50.235Z,102711.59
2018-02-18T08:00:54.592Z,102714.88
2018-02-18T08:01:58.792Z,102712.81
2018-02-18T08:03:02.922Z,102712.14
2018-02-18T08:04:07.052Z,102713.59
2018-02-18T08:05:11.262Z,102712.89
2018-02-18T08:06:15.801Z,102708.66
2018-02-18T08:07:21.658Z,102709.75
2018-02-18T08:08:25.888Z,102714.58
2018-02-18T08:09:30.105Z,102713.38
2018-02-18T08:10:35.400Z,102711.72
2018-02-18T08:11:39.992Z,102711.41
2018-02-18T08:12:45.063Z,102707.16
2018-02-18T08:13:49.351Z,102708.81
2018-02-18T08:15:56.880Z,102708.23
2018-02-18T08:17:01.033Z,102699.30
2018-02-18T08:18:06.195Z,102711.70
2018-02-18T08:19:10.890Z,102708.07
2018-02-18T08:20:15.510Z,102706.73
2018-02-18T08:21:19.783Z,102712.67
2018-02-18T08:22:23.984Z,102708.65
2018-02-18T08:23:28.194Z,102707.94
2018-02-18T08:24:34.322Z,102706.62
2018-02-18T08:25:38.506Z,102709.36
2018-02-18T08:26:43.388Z,102703.98
2018-02-18T08:27:47.889Z,102705.20
2018-02-18T08:28:52.188Z,102715.63
2018-02-18T08:29:56.338Z,102708.74
2018-02-18T08:31:01.237Z,102703.71
2018-02-18T08:32:05.449Z,102706.44
2018-02-18T08:33:09.783Z,102707.97
2018-02-18T08:34:14.012Z,102707.66
2018-02-18T08:35:18.269Z,102712.57
2018-02-18T08:36:23.020Z,102711.92
2018-02-18T08:37:28.308Z,102703.64
2018-02-18T08:38:32.724Z,102714.16
2018-02-18T08:39:37.236Z,102710.18
2018-02-18T08:40:42.213Z,102706.78
2018-02-18T08:41:46.494Z,102708.05
2018-02-18T08:42:51.031Z,102709.22
2018-02-18T08:43:55.275Z,102707.67
2018-02-18T08:44:59.401Z,102706.69
2018-02-18T08:46:04.236Z,102703.05
2018-02-18T08:47:08.495Z,102706.66
2018-02-18T08:48:13.057Z,102711.03
2018-02-18T08:49:17.314Z,102707.72
2018-02-18T08:50:21.559Z,102707.95
2018-02-18T08:51:25.871Z,102708.16
2018-02-18T08:52:30.033Z,102707.22
2018-02-18T08:53:34.844Z,102708.33
2018-02-18T08:54:39.011Z,102710.16
2018-02-18T08:55:43.164Z,102715.09
2018-02-18T08:56:47.345Z,102710.34
2018-02-18T08:57:51.522Z,102702.25
2018-02-18T08:58:55.733Z,102709.03
2018-02-18T09:00:00.227Z,102712.43
2018-02-18T09:01:04.577Z,102702.30
2018-02-18T09:02:08.815Z,102705.95
2018-02-18T09:03:13.068Z,102700.77
2018-02-18T09:04:17.248Z,102705.36
2018-02-18T09:05:21.525Z,102710.78
2018-02-18T09:06:25.833Z,102709.55
2018-02-18T09:07:30.052Z,102700.72
2018-02-18T09:08:34.240Z,102705.67
2018-02-18T09:09:38.438Z,102705.05
2018-02-18T09:10:42.552Z,102701.33
2018-02-18T09:11:47.380Z,102703.17
2018-02-18T09:12:51.964Z,102700.45
2018-02-18T09:13:56.133Z,102704.59
2018-02-18T09:15:00.261Z,102708.20
2018-02-18T09:16:04.767Z,102709.86
2018-02-18T09:17:09.004Z,102705.94
2018-02-18T09:18:13.513Z,102713.05
2018-02-18T09:19:17.800Z,102718.52
2018-02-18T09:20:22.230Z,102717.71
2018-02-18T09:21:26.427Z,102719.45
2018-02-18T09:22:30.663Z,102719.30
2018-02-18T09:23:35.243Z,102720.00
2018-02-18T09:24:39.415Z,102722.95
2018-02-18T09:25:43.583Z,102720.70
2018-02-18T09:26:47.741Z,102716.40
2018-02-18T09:27:51.884Z,102717.03
2018-02-18T09:28:56.196Z,102725.41
2018-02-18T09:30:00.698Z,102719.50
2018-02-18T09:31:05.164Z,102722.54
2018-02-18T09:32:09.378Z,102718.12
2018-02-18T09:33:13.610Z,102722.16
2018-02-18T09:34:17.754Z,102718.71
2018-02-18T09:35:22.043Z,102721.95
2018-02-18T09:36:26.594Z,102721.83
2018-02-18T09:37:30.872Z,102721.87
2018-02-18T09:38:35.598Z,102711.10
2018-02-18T09:39:39.818Z,102708.74
2018-02-18T09:40:43.999Z,102709.52
2018-02-18T09:41:48.242Z,102720.25
2018-02-18T09:42:52.396Z,102710.73
2018-02-18T09:43:56.562Z,102724.02
2018-02-18T09:45:00.835Z,102720.44
2018-02-18T09:46:06.780Z,102725.55
2018-02-18T09:47:11.006Z,102718.25
2018-02-18T09:48:15.244Z,102713.73
2018-02-18T09:49:19.839Z,102718.55
2018-02-18T09:50:24.166Z,102716.97
2018-02-18T09:51:28.343Z,102722.78
2018-02-18T09:52:33.398Z,102721.32
2018-02-18T09:53:37.708Z,102715.63
2018-02-18T09:54:42.819Z,102723.39
2018-02-18T09:55:47.006Z,102713.64
2018-02-18T09:56:51.140Z,102709.14
2018-02-18T09:57:55.282Z,102712.77
2018-02-18T09:58:59.736Z,102708.14
2018-02-18T10:00:06.318Z,102709.77
2018-02-18T10:01:10.846Z,102714.66
2018-02-18T10:02:15.114Z,102714.59
2018-02-18T10:03:19.377Z,102711.16
2018-02-18T10:04:23.739Z,102713.56
2018-02-18T10:05:27.961Z,102719.86
2018-02-18T10:06:32.996Z,102718.87
2018-02-18T10:07:37.262Z,102723.05
2018-02-18T10:08:41.421Z,102722.95
2018-02-18T10:09:45.628Z,102721.58
2018-02-18T10:10:49.922Z,102726.46
2018-02-18T10:11:54.152Z,102734.44
2018-02-18T10:12:58.643Z,102730.45
2018-02-18T10:14:02.812Z,102734.64
2018-02-18T10:15:07.534Z,102729.74
2018-02-18T10:16:12.164Z,102733.41
2018-02-18T10:17:17.043Z,102734.75
2018-02-18T10:18:21.638Z,102737.84
2018-02-18T10:19:25.962Z,102733.26
2018-02-18T10:20:30.311Z,102728.53
2018-02-18T10:21:35.470Z,102728.94
2018-02-18T10:22:39.632Z,102726.06
2018-02-18T10:23:43.975Z,102728.70
2018-02-18T10:24:48.393Z,102730.52
2018-02-18T10:25:52.898Z,102724.47
2018-02-18T10:26:57.055Z,102728.22
2018-02-18T10:28:01.231Z,102728.11
2018-02-18T10:29:05.423Z,102726.43
2018-02-18T10:30:10.108Z,102729.55
2018-02-18T10:31:14.729Z,102732.00
2018-02-18T10:32:18.957Z,102730.47
2018-02-18T10:33:23.349Z,102734.91
2018-02-18T10:34:27.692Z,102729.95
2018-02-18T10:35:32.543Z,102734.12
2018-02-18T10:36:36.741Z,102736.58
2018-02-18T10:37:41.256Z,102734.97
2018-02-18T10:38:45.443Z,102741.27
2018-02-18T10:39:49.720Z,102728.74
2018-02-18T10:40:53.919Z,102731.32
2018-02-18T10:41:58.291Z,102732.95
2018-02-18T10:43:02.541Z,102727.95
2018-02-18T10:44:06.688Z,102733.73
2018-02-18T10:45:12.995Z,102729.73
2018-02-18T10:46:17.276Z,102730.16
2018-02-18T10:47:21.599Z,102727.80
2018-02-18T10:48:26.055Z,102733.63
2018-02-18T10:49:30.599Z,102730.33
2018-02-18T10:50:34.918Z,102728.72
2018-02-18T10:51:39.129Z,102727.67
2018-02-18T10:52:43.405Z,102723.14
2018-02-18T10:53:47.637Z,102726.89
2018-02-18T10:54:51.956Z,102720.16
2018-02-18T10:55:56.184Z,102720.14
2018-02-18T10:57:00.402Z,102719.81
2018-02-18T10:58:04.714Z,102718.13
2018-02-18T10:59:08.950Z,102713.59
2018-02-18T11:00:15.490Z,102719.64
2018-02-18T11:01:20.155Z,102713.11
2018-02-18T11:02:24.708Z,102717.28
2018-02-18T11:03:29.809Z,102711.77
2018-02-18T11:04:34.765Z,102701.00
2018-02-18T11:05:39.095Z,102701.72
2018-02-18T11:06:43.320Z,102701.14
2018-02-18T11:07:47.639Z,102708.59
2018-02-18T11:08:51.877Z,102700.98
2018-02-18T11:09:56.084Z,102700.69
2018-02-18T11:11:00.575Z,102700.92
2018-02-18T11:12:04.894Z,102700.77
2018-02-18T11:13:09.432Z,102696.77
2018-02-18T11:14:13.947Z,102687.19
2018-02-18T11:15:18.443Z,102692.50
2018-02-18T11:16:22.878Z,102687.50
2018-02-18T11:17:27.440Z,102689.93
2018-02-18T11:18:31.621Z,102695.99
2018-02-18T11:19:36.497Z,102689.48
2018-02-18T11:20:41.997Z,102690.42
2018-02-18T11:21:46.281Z,102684.46
2018-02-18T11:22:50.501Z,102685.40
2018-02-18T11:23:54.695Z,102682.51
2018-02-18T11:24:58.890Z,102686.05
2018-02-18T11:26:03.151Z,102684.25
2018-02-18T11:27:07.764Z,102676.77
2018-02-18T11:28:11.992Z,102691.23
2018-02-18T11:29:16.262Z,102678.81
2018-02-18T11:30:20.554Z,102678.68
2018-02-18T11:31:24.923Z,102680.82
2018-02-18T11:32:29.153Z,102682.69
2018-02-18T11:33:33.812Z,102665.98
2018-02-18T11:34:38.091Z,102668.92
2018-02-18T11:35:42.324Z,102673.74
2018-02-18T11:36:46.628Z,102661.44
2018-02-18T11:37:50.874Z,102662.50
2018-02-18T11:38:55.176Z,102667.08
2018-02-18T11:39:59.389Z,102668.39
2018-02-18T11:41:03.770Z,102664.88
2018-02-18T11:42:08.052Z,102658.72
2018-02-18T11:43:12.354Z,102660.11
2018-02-18T11:44:16.625Z,102655.95
2018-02-18T11:45:20.874Z,102662.07
2018-02-18T11:46:25.911Z,102656.97
2018-02-18T11:47:30.259Z,102657.49
2018-02-18T11:48:34.462Z,102652.53
2018-02-18T11:49:38.642Z,102648.54
2018-02-18T11:50:42.933Z,102643.22
2018-02-18T11:51:47.149Z,102648.91
2018-02-18T11:52:51.704Z,102644.64
2018-02-18T11:53:55.990Z,102640.98
2018-02-18T11:55:00.136Z,102644.32
2018-02-18T11:56:04.375Z,102640.02
2018-02-18T11:57:08.565Z,102642.36
2018-02-18T11:58:12.939Z,102651.30
2018-02-18T11:59:17.525Z,102630.69
2018-02-18T12:00:22.160Z,102635.80
2018-02-18T12:01:26.668Z,102638.53
2018-02-18T12:02:31.081Z,102635.36
2018-02-18T12:03:35.281Z,102631.60
2018-02-18T12:04:39.538Z,102633.16
2018-02-18T12:05:44.194Z,102630.59
2018-02-18T12:06:48.336Z,102638.70
2018-02-18T12:07:52.613Z,102630.71
2018-02-18T12:08:56.840Z,102619.74
2018-02-18T12:10:01.009Z,102620.70
2018-02-18T12:11:05.337Z,102621.27
2018-02-18T12:12:09.677Z,102629.64
2018-02-18T12:13:13.982Z,102621.22
2018-02-18T12:14:18.272Z,102612.65
2018-02-18T12:15:22.830Z,102618.11
2018-02-18T12:16:27.244Z,102619.99